sensor_id;sensor_type;location;lat;lon;timestamp;P1;durP1;ratioP1;P2;durP2;ratioP2
13720;SDS011;6932;51.438;5.470;2024-02-14T00:01:06;2.57;;;2.10;;
13720;SDS011;6932;51.438;5.470;2024-02-14T00:03:34;2.40;;;2.00;;
13720;SDS011;6932;51.438;5.470;2024-02-14T00:06:01;3.83;;;2.30;;
13720;SDS011;6932;51.438;5.470;2024-02-14T00:08:30;3.57;;;2.00;;
13720;SDS011;6932;51.438;5.470;2024-02-14T00:10:56;2.97;;;2.10;;
13720;SDS011;6932;51.438;5.470;2024-02-14T00:13:22;2.60;;;2.20;;
13720;SDS011;6932;51.438;5.470;2024-02-14T00:15:48;3.63;;;2.30;;
13720;SDS011;6932;51.438;5.470;2024-02-14T00:18:13;3.43;;;2.20;;
13720;SDS011;6932;51.438;5.470;2024-02-14T00:20:44;2.97;;;2.00;;
13720;SDS011;6932;51.438;5.470;2024-02-14T00:23:10;3.03;;;2.20;;
13720;SDS011;6932;51.438;5.470;2024-02-14T00:25:36;3.00;;;2.20;;
13720;SDS011;6932;51.438;5.470;2024-02-14T00:28:02;3.37;;;2.10;;
13720;SDS011;6932;51.438;5.470;2024-02-14T00:30:28;2.73;;;2.03;;
13720;SDS011;6932;51.438;5.470;2024-02-14T00:32:54;3.00;;;2.20;;
13720;SDS011;6932;51.438;5.470;2024-02-14T00:35:20;4.20;;;2.20;;
13720;SDS011;6932;51.438;5.470;2024-02-14T00:37:47;3.50;;;2.30;;
13720;SDS011;6932;51.438;5.470;2024-02-14T00:40:12;3.50;;;2.30;;
13720;SDS011;6932;51.438;5.470;2024-02-14T00:42:38;3.90;;;2.20;;
13720;SDS011;6932;51.438;5.470;2024-02-14T00:45:05;3.10;;;2.20;;
13720;SDS011;6932;51.438;5.470;2024-02-14T00:47:33;4.07;;;2.40;;
13720;SDS011;6932;51.438;5.470;2024-02-14T00:50:00;3.63;;;2.30;;
13720;SDS011;6932;51.438;5.470;2024-02-14T00:52:27;4.03;;;2.30;;
13720;SDS011;6932;51.438;5.470;2024-02-14T00:54:54;3.43;;;2.60;;
13720;SDS011;6932;51.438;5.470;2024-02-14T00:57:19;3.03;;;2.13;;
13720;SDS011;6932;51.438;5.470;2024-02-14T00:59:45;4.27;;;2.37;;
13720;SDS011;6932;51.438;5.470;2024-02-14T01:02:11;3.33;;;2.30;;
13720;SDS011;6932;51.438;5.470;2024-02-14T01:04:37;4.53;;;2.20;;
13720;SDS011;6932;51.438;5.470;2024-02-14T01:07:03;5.03;;;2.43;;
13720;SDS011;6932;51.438;5.470;2024-02-14T01:09:29;3.20;;;2.30;;
13720;SDS011;6932;51.438;5.470;2024-02-14T01:11:54;3.17;;;2.40;;
13720;SDS011;6932;51.438;5.470;2024-02-14T01:14:20;4.73;;;2.30;;
13720;SDS011;6932;51.438;5.470;2024-02-14T01:16:47;3.33;;;2.33;;
13720;SDS011;6932;51.438;5.470;2024-02-14T01:19:12;3.13;;;2.00;;
13720;SDS011;6932;51.438;5.470;2024-02-14T01:21:39;4.20;;;2.27;;
13720;SDS011;6932;51.438;5.470;2024-02-14T01:24:05;3.10;;;2.20;;
13720;SDS011;6932;51.438;5.470;2024-02-14T01:26:31;3.27;;;2.20;;
13720;SDS011;6932;51.438;5.470;2024-02-14T01:29:00;3.30;;;2.20;;
13720;SDS011;6932;51.438;5.470;2024-02-14T01:31:26;3.33;;;2.20;;
13720;SDS011;6932;51.438;5.470;2024-02-14T01:33:52;3.57;;;2.20;;
13720;SDS011;6932;51.438;5.470;2024-02-14T01:36:18;4.27;;;2.30;;
13720;SDS011;6932;51.438;5.470;2024-02-14T01:38:44;3.77;;;2.17;;
13720;SDS011;6932;51.438;5.470;2024-02-14T01:41:10;2.77;;;2.00;;
13720;SDS011;6932;51.438;5.470;2024-02-14T01:43:35;4.13;;;2.37;;
13720;SDS011;6932;51.438;5.470;2024-02-14T01:46:05;3.70;;;2.03;;
13720;SDS011;6932;51.438;5.470;2024-02-14T01:48:35;3.47;;;2.03;;
13720;SDS011;6932;51.438;5.470;2024-02-14T01:51:04;4.23;;;2.40;;
13720;SDS011;6932;51.438;5.470;2024-02-14T01:53:33;3.60;;;2.30;;
13720;SDS011;6932;51.438;5.470;2024-02-14T01:56:02;3.90;;;2.23;;
13720;SDS011;6932;51.438;5.470;2024-02-14T01:58:30;3.90;;;2.50;;
13720;SDS011;6932;51.438;5.470;2024-02-14T02:00:56;3.67;;;2.40;;
13720;SDS011;6932;51.438;5.470;2024-02-14T02:03:26;4.67;;;2.30;;
13720;SDS011;6932;51.438;5.470;2024-02-14T02:05:52;3.60;;;2.10;;
13720;SDS011;6932;51.438;5.470;2024-02-14T02:08:19;4.77;;;2.40;;
13720;SDS011;6932;51.438;5.470;2024-02-14T02:10:45;3.63;;;2.30;;
13720;SDS011;6932;51.438;5.470;2024-02-14T02:13:11;3.37;;;2.20;;
13720;SDS011;6932;51.438;5.470;2024-02-14T02:15:37;3.40;;;2.40;;
13720;SDS011;6932;51.438;5.470;2024-02-14T02:18:03;3.57;;;2.60;;
13720;SDS011;6932;51.438;5.470;2024-02-14T02:20:31;3.77;;;2.47;;
13720;SDS011;6932;51.438;5.470;2024-02-14T02:22:57;4.27;;;2.40;;
13720;SDS011;6932;51.438;5.470;2024-02-14T02:25:24;4.03;;;2.50;;
13720;SDS011;6932;51.438;5.470;2024-02-14T02:27:51;3.20;;;2.20;;
13720;SDS011;6932;51.438;5.470;2024-02-14T02:30:27;4.40;;;2.60;;
13720;SDS011;6932;51.438;5.470;2024-02-14T02:32:52;3.73;;;2.43;;
13720;SDS011;6932;51.438;5.470;2024-02-14T02:35:18;3.30;;;2.30;;
13720;SDS011;6932;51.438;5.470;2024-02-14T02:37:45;4.00;;;2.20;;
13720;SDS011;6932;51.438;5.470;2024-02-14T02:40:13;3.77;;;2.30;;
13720;SDS011;6932;51.438;5.470;2024-02-14T02:42:39;2.90;;;2.23;;
13720;SDS011;6932;51.438;5.470;2024-02-14T02:45:05;4.57;;;2.30;;
13720;SDS011;6932;51.438;5.470;2024-02-14T02:47:32;4.87;;;2.40;;
13720;SDS011;6932;51.438;5.470;2024-02-14T02:49:57;3.50;;;2.33;;
13720;SDS011;6932;51.438;5.470;2024-02-14T02:52:26;4.90;;;2.43;;
13720;SDS011;6932;51.438;5.470;2024-02-14T02:54:53;3.97;;;2.50;;
13720;SDS011;6932;51.438;5.470;2024-02-14T02:57:19;3.10;;;2.40;;
13720;SDS011;6932;51.438;5.470;2024-02-14T02:59:45;3.97;;;2.47;;
13720;SDS011;6932;51.438;5.470;2024-02-14T03:02:13;3.10;;;2.23;;
13720;SDS011;6932;51.438;5.470;2024-02-14T03:04:40;4.53;;;2.50;;
13720;SDS011;6932;51.438;5.470;2024-02-14T03:07:06;3.93;;;2.70;;
13720;SDS011;6932;51.438;5.470;2024-02-14T03:09:36;3.17;;;2.00;;
13720;SDS011;6932;51.438;5.470;2024-02-14T03:12:02;4.47;;;2.53;;
13720;SDS011;6932;51.438;5.470;2024-02-14T03:14:32;2.77;;;2.30;;
13720;SDS011;6932;51.438;5.470;2024-02-14T03:17:07;3.40;;;2.30;;
13720;SDS011;6932;51.438;5.470;2024-02-14T03:19:34;3.33;;;2.50;;
13720;SDS011;6932;51.438;5.470;2024-02-14T03:22:03;4.00;;;2.23;;
13720;SDS011;6932;51.438;5.470;2024-02-14T03:24:34;4.23;;;2.17;;
13720;SDS011;6932;51.438;5.470;2024-02-14T03:27:02;4.10;;;2.30;;
13720;SDS011;6932;51.438;5.470;2024-02-14T03:29:29;3.73;;;2.30;;
13720;SDS011;6932;51.438;5.470;2024-02-14T03:31:55;3.67;;;2.20;;
13720;SDS011;6932;51.438;5.470;2024-02-14T03:34:23;3.57;;;2.47;;
13720;SDS011;6932;51.438;5.470;2024-02-14T03:36:50;4.33;;;2.50;;
13720;SDS011;6932;51.438;5.470;2024-02-14T03:39:16;3.50;;;2.50;;
13720;SDS011;6932;51.438;5.470;2024-02-14T03:41:42;5.77;;;2.53;;
13720;SDS011;6932;51.438;5.470;2024-02-14T03:44:07;4.13;;;2.50;;
13720;SDS011;6932;51.438;5.470;2024-02-14T03:46:33;3.40;;;2.20;;
13720;SDS011;6932;51.438;5.470;2024-02-14T03:49:00;4.07;;;2.50;;
13720;SDS011;6932;51.438;5.470;2024-02-14T03:51:26;3.40;;;2.30;;
13720;SDS011;6932;51.438;5.470;2024-02-14T03:53:52;3.17;;;2.20;;
13720;SDS011;6932;51.438;5.470;2024-02-14T03:56:18;3.80;;;2.37;;
13720;SDS011;6932;51.438;5.470;2024-02-14T03:58:43;4.47;;;2.40;;
13720;SDS011;6932;51.438;5.470;2024-02-14T04:01:09;3.27;;;2.40;;
13720;SDS011;6932;51.438;5.470;2024-02-14T04:03:35;3.83;;;2.50;;
13720;SDS011;6932;51.438;5.470;2024-02-14T04:06:01;5.23;;;2.40;;
13720;SDS011;6932;51.438;5.470;2024-02-14T04:08:26;3.40;;;2.33;;
13720;SDS011;6932;51.438;5.470;2024-02-14T04:10:52;4.60;;;2.37;;
13720;SDS011;6932;51.438;5.470;2024-02-14T04:13:21;3.07;;;2.20;;
13720;SDS011;6932;51.438;5.470;2024-02-14T04:15:47;3.37;;;2.20;;
13720;SDS011;6932;51.438;5.470;2024-02-14T04:18:13;3.10;;;2.40;;
13720;SDS011;6932;51.438;5.470;2024-02-14T04:20:43;3.17;;;2.20;;
13720;SDS011;6932;51.438;5.470;2024-02-14T04:23:09;3.67;;;2.30;;
13720;SDS011;6932;51.438;5.470;2024-02-14T04:25:35;4.57;;;2.50;;
13720;SDS011;6932;51.438;5.470;2024-02-14T04:28:05;3.90;;;2.30;;
13720;SDS011;6932;51.438;5.470;2024-02-14T04:30:31;3.13;;;2.30;;
13720;SDS011;6932;51.438;5.470;2024-02-14T04:32:56;3.67;;;2.40;;
13720;SDS011;6932;51.438;5.470;2024-02-14T04:35:22;2.80;;;2.20;;
13720;SDS011;6932;51.438;5.470;2024-02-14T04:37:48;4.40;;;2.20;;
13720;SDS011;6932;51.438;5.470;2024-02-14T04:40:14;3.90;;;2.30;;
13720;SDS011;6932;51.438;5.470;2024-02-14T04:42:40;2.70;;;2.10;;
13720;SDS011;6932;51.438;5.470;2024-02-14T04:45:07;4.37;;;2.20;;
13720;SDS011;6932;51.438;5.470;2024-02-14T04:47:33;3.50;;;2.20;;
13720;SDS011;6932;51.438;5.470;2024-02-14T04:49:59;3.63;;;2.27;;
13720;SDS011;6932;51.438;5.470;2024-02-14T04:52:26;4.53;;;2.47;;
13720;SDS011;6932;51.438;5.470;2024-02-14T04:54:52;3.73;;;2.57;;
13720;SDS011;6932;51.438;5.470;2024-02-14T04:57:18;4.23;;;2.30;;
13720;SDS011;6932;51.438;5.470;2024-02-14T04:59:45;3.03;;;2.20;;
13720;SDS011;6932;51.438;5.470;2024-02-14T05:02:10;4.53;;;2.60;;
13720;SDS011;6932;51.438;5.470;2024-02-14T05:04:36;4.37;;;2.40;;
13720;SDS011;6932;51.438;5.470;2024-02-14T05:07:04;4.60;;;2.60;;
13720;SDS011;6932;51.438;5.470;2024-02-14T05:09:30;3.80;;;2.60;;
13720;SDS011;6932;51.438;5.470;2024-02-14T05:11:56;4.20;;;2.60;;
13720;SDS011;6932;51.438;5.470;2024-02-14T05:14:22;4.63;;;2.90;;
13720;SDS011;6932;51.438;5.470;2024-02-14T05:16:48;5.33;;;2.63;;
13720;SDS011;6932;51.438;5.470;2024-02-14T05:19:14;5.50;;;2.57;;
13720;SDS011;6932;51.438;5.470;2024-02-14T05:21:39;4.33;;;2.60;;
13720;SDS011;6932;51.438;5.470;2024-02-14T05:24:05;4.87;;;3.00;;
13720;SDS011;6932;51.438;5.470;2024-02-14T05:26:31;4.60;;;2.93;;
13720;SDS011;6932;51.438;5.470;2024-02-14T05:28:58;4.90;;;2.73;;
13720;SDS011;6932;51.438;5.470;2024-02-14T05:31:24;3.87;;;2.40;;
13720;SDS011;6932;51.438;5.470;2024-02-14T05:33:50;4.70;;;2.73;;
13720;SDS011;6932;51.438;5.470;2024-02-14T05:36:16;3.50;;;2.50;;
13720;SDS011;6932;51.438;5.470;2024-02-14T05:38:42;4.00;;;2.43;;
13720;SDS011;6932;51.438;5.470;2024-02-14T05:41:08;4.10;;;2.60;;
13720;SDS011;6932;51.438;5.470;2024-02-14T05:43:35;4.23;;;2.67;;
13720;SDS011;6932;51.438;5.470;2024-02-14T05:46:01;4.60;;;2.70;;
13720;SDS011;6932;51.438;5.470;2024-02-14T05:48:27;4.17;;;2.77;;
13720;SDS011;6932;51.438;5.470;2024-02-14T05:50:52;4.53;;;2.90;;
13720;SDS011;6932;51.438;5.470;2024-02-14T05:53:18;4.03;;;2.70;;
13720;SDS011;6932;51.438;5.470;2024-02-14T05:55:45;4.00;;;2.90;;
13720;SDS011;6932;51.438;5.470;2024-02-14T05:58:10;4.10;;;2.60;;
13720;SDS011;6932;51.438;5.470;2024-02-14T06:00:38;4.73;;;3.00;;
13720;SDS011;6932;51.438;5.470;2024-02-14T06:03:03;3.70;;;2.83;;
13720;SDS011;6932;51.438;5.470;2024-02-14T06:05:31;6.00;;;2.90;;
13720;SDS011;6932;51.438;5.470;2024-02-14T06:07:57;4.00;;;2.93;;
13720;SDS011;6932;51.438;5.470;2024-02-14T06:10:22;5.13;;;3.13;;
13720;SDS011;6932;51.438;5.470;2024-02-14T06:12:50;4.40;;;3.00;;
13720;SDS011;6932;51.438;5.470;2024-02-14T06:15:16;6.27;;;3.40;;
13720;SDS011;6932;51.438;5.470;2024-02-14T06:17:42;4.47;;;3.20;;
13720;SDS011;6932;51.438;5.470;2024-02-14T06:20:07;5.33;;;3.43;;
13720;SDS011;6932;51.438;5.470;2024-02-14T06:22:34;4.97;;;3.30;;
13720;SDS011;6932;51.438;5.470;2024-02-14T06:25:00;3.77;;;3.03;;
13720;SDS011;6932;51.438;5.470;2024-02-14T06:27:26;5.50;;;3.60;;
13720;SDS011;6932;51.438;5.470;2024-02-14T06:29:52;5.33;;;3.17;;
13720;SDS011;6932;51.438;5.470;2024-02-14T06:32:18;5.53;;;3.43;;
13720;SDS011;6932;51.438;5.470;2024-02-14T06:34:44;6.03;;;3.40;;
13720;SDS011;6932;51.438;5.470;2024-02-14T06:37:10;4.60;;;3.20;;
13720;SDS011;6932;51.438;5.470;2024-02-14T06:39:35;6.03;;;3.17;;
13720;SDS011;6932;51.438;5.470;2024-02-14T06:42:01;5.47;;;3.20;;
13720;SDS011;6932;51.438;5.470;2024-02-14T06:44:27;5.70;;;3.50;;
13720;SDS011;6932;51.438;5.470;2024-02-14T06:46:52;5.40;;;3.20;;
13720;SDS011;6932;51.438;5.470;2024-02-14T06:49:18;5.17;;;3.30;;
13720;SDS011;6932;51.438;5.470;2024-02-14T06:51:44;6.13;;;3.60;;
13720;SDS011;6932;51.438;5.470;2024-02-14T06:54:10;5.87;;;3.43;;
13720;SDS011;6932;51.438;5.470;2024-02-14T06:56:37;4.13;;;3.10;;
13720;SDS011;6932;51.438;5.470;2024-02-14T06:59:03;6.03;;;3.43;;
13720;SDS011;6932;51.438;5.470;2024-02-14T07:01:29;5.43;;;3.30;;
13720;SDS011;6932;51.438;5.470;2024-02-14T07:03:56;4.70;;;3.30;;
13720;SDS011;6932;51.438;5.470;2024-02-14T07:06:23;4.77;;;3.03;;
13720;SDS011;6932;51.438;5.470;2024-02-14T07:08:48;5.90;;;3.53;;
13720;SDS011;6932;51.438;5.470;2024-02-14T07:11:14;4.80;;;3.20;;
13720;SDS011;6932;51.438;5.470;2024-02-14T07:13:41;5.47;;;3.17;;
13720;SDS011;6932;51.438;5.470;2024-02-14T07:16:07;5.67;;;3.67;;
13720;SDS011;6932;51.438;5.470;2024-02-14T07:18:33;5.40;;;3.40;;
13720;SDS011;6932;51.438;5.470;2024-02-14T07:20:59;6.10;;;3.40;;
13720;SDS011;6932;51.438;5.470;2024-02-14T07:23:26;6.53;;;3.70;;
13720;SDS011;6932;51.438;5.470;2024-02-14T07:25:52;6.77;;;3.50;;
13720;SDS011;6932;51.438;5.470;2024-02-14T07:28:18;5.60;;;3.23;;
13720;SDS011;6932;51.438;5.470;2024-02-14T07:30:44;6.33;;;3.50;;
13720;SDS011;6932;51.438;5.470;2024-02-14T07:33:10;6.10;;;3.37;;
13720;SDS011;6932;51.438;5.470;2024-02-14T07:35:36;5.33;;;3.30;;
13720;SDS011;6932;51.438;5.470;2024-02-14T07:38:02;5.13;;;3.70;;
13720;SDS011;6932;51.438;5.470;2024-02-14T07:40:28;5.40;;;3.80;;
13720;SDS011;6932;51.438;5.470;2024-02-14T07:42:56;5.70;;;3.70;;
13720;SDS011;6932;51.438;5.470;2024-02-14T07:45:25;6.63;;;3.50;;
13720;SDS011;6932;51.438;5.470;2024-02-14T07:47:51;9.07;;;3.83;;
13720;SDS011;6932;51.438;5.470;2024-02-14T07:50:17;7.60;;;3.70;;
13720;SDS011;6932;51.438;5.470;2024-02-14T07:52:44;6.67;;;3.70;;
13720;SDS011;6932;51.438;5.470;2024-02-14T07:55:10;8.23;;;4.10;;
13720;SDS011;6932;51.438;5.470;2024-02-14T07:57:37;5.83;;;3.53;;
13720;SDS011;6932;51.438;5.470;2024-02-14T08:00:07;6.67;;;3.83;;
13720;SDS011;6932;51.438;5.470;2024-02-14T08:02:35;7.23;;;4.00;;
13720;SDS011;6932;51.438;5.470;2024-02-14T08:05:02;5.87;;;3.90;;
13720;SDS011;6932;51.438;5.470;2024-02-14T08:07:29;6.90;;;3.80;;
13720;SDS011;6932;51.438;5.470;2024-02-14T08:09:56;5.83;;;3.77;;
13720;SDS011;6932;51.438;5.470;2024-02-14T08:12:21;7.93;;;4.57;;
13720;SDS011;6932;51.438;5.470;2024-02-14T08:14:48;5.80;;;3.87;;
13720;SDS011;6932;51.438;5.470;2024-02-14T08:17:15;6.07;;;3.73;;
13720;SDS011;6932;51.438;5.470;2024-02-14T08:19:40;5.97;;;3.80;;
13720;SDS011;6932;51.438;5.470;2024-02-14T08:22:06;5.73;;;3.77;;
13720;SDS011;6932;51.438;5.470;2024-02-14T08:24:33;6.90;;;3.90;;
13720;SDS011;6932;51.438;5.470;2024-02-14T08:26:58;6.47;;;3.67;;
13720;SDS011;6932;51.438;5.470;2024-02-14T08:29:24;5.70;;;3.83;;
13720;SDS011;6932;51.438;5.470;2024-02-14T08:31:50;7.93;;;4.00;;
13720;SDS011;6932;51.438;5.470;2024-02-14T08:34:15;5.97;;;3.67;;
13720;SDS011;6932;51.438;5.470;2024-02-14T08:36:42;6.40;;;3.90;;
13720;SDS011;6932;51.438;5.470;2024-02-14T08:39:08;6.53;;;3.73;;
13720;SDS011;6932;51.438;5.470;2024-02-14T08:41:35;5.97;;;3.77;;
13720;SDS011;6932;51.438;5.470;2024-02-14T08:44:06;6.93;;;3.87;;
13720;SDS011;6932;51.438;5.470;2024-02-14T08:46:32;6.33;;;3.73;;
13720;SDS011;6932;51.438;5.470;2024-02-14T08:48:59;7.70;;;4.00;;
13720;SDS011;6932;51.438;5.470;2024-02-14T08:51:27;6.60;;;3.47;;
13720;SDS011;6932;51.438;5.470;2024-02-14T08:53:53;7.27;;;3.80;;
13720;SDS011;6932;51.438;5.470;2024-02-14T08:56:22;7.73;;;3.87;;
13720;SDS011;6932;51.438;5.470;2024-02-14T08:58:48;7.93;;;3.90;;
13720;SDS011;6932;51.438;5.470;2024-02-14T09:01:14;6.27;;;3.53;;
13720;SDS011;6932;51.438;5.470;2024-02-14T09:03:40;7.23;;;3.90;;
13720;SDS011;6932;51.438;5.470;2024-02-14T09:06:12;7.00;;;4.00;;
13720;SDS011;6932;51.438;5.470;2024-02-14T09:08:43;7.00;;;3.50;;
13720;SDS011;6932;51.438;5.470;2024-02-14T09:11:09;5.73;;;3.30;;
13720;SDS011;6932;51.438;5.470;2024-02-14T09:13:34;5.93;;;3.23;;
13720;SDS011;6932;51.438;5.470;2024-02-14T09:16:00;6.60;;;3.50;;
13720;SDS011;6932;51.438;5.470;2024-02-14T09:18:26;6.20;;;3.50;;
13720;SDS011;6932;51.438;5.470;2024-02-14T09:20:52;5.77;;;3.37;;
13720;SDS011;6932;51.438;5.470;2024-02-14T09:23:18;6.73;;;3.40;;
13720;SDS011;6932;51.438;5.470;2024-02-14T09:25:45;5.17;;;3.27;;
13720;SDS011;6932;51.438;5.470;2024-02-14T09:28:18;5.67;;;3.30;;
13720;SDS011;6932;51.438;5.470;2024-02-14T09:30:44;6.90;;;3.57;;
13720;SDS011;6932;51.438;5.470;2024-02-14T09:33:10;6.27;;;3.10;;
13720;SDS011;6932;51.438;5.470;2024-02-14T09:35:37;6.27;;;3.50;;
13720;SDS011;6932;51.438;5.470;2024-02-14T09:38:04;5.03;;;3.20;;
13720;SDS011;6932;51.438;5.470;2024-02-14T09:40:31;5.77;;;3.13;;
13720;SDS011;6932;51.438;5.470;2024-02-14T09:42:56;6.03;;;3.40;;
13720;SDS011;6932;51.438;5.470;2024-02-14T09:45:28;7.00;;;3.30;;
13720;SDS011;6932;51.438;5.470;2024-02-14T09:47:58;5.60;;;3.13;;
13720;SDS011;6932;51.438;5.470;2024-02-14T09:50:24;4.53;;;2.93;;
13720;SDS011;6932;51.438;5.470;2024-02-14T09:52:56;5.97;;;3.07;;
13720;SDS011;6932;51.438;5.470;2024-02-14T09:55:23;4.43;;;2.90;;
13720;SDS011;6932;51.438;5.470;2024-02-14T09:57:51;5.70;;;3.10;;
13720;SDS011;6932;51.438;5.470;2024-02-14T10:00:19;6.70;;;3.40;;
13720;SDS011;6932;51.438;5.470;2024-02-14T10:02:46;6.57;;;3.23;;
13720;SDS011;6932;51.438;5.470;2024-02-14T10:05:29;6.00;;;3.03;;
13720;SDS011;6932;51.438;5.470;2024-02-14T10:07:56;5.73;;;3.40;;
13720;SDS011;6932;51.438;5.470;2024-02-14T10:10:26;4.37;;;2.83;;
13720;SDS011;6932;51.438;5.470;2024-02-14T10:12:54;6.43;;;3.20;;
13720;SDS011;6932;51.438;5.470;2024-02-14T10:15:23;7.47;;;3.50;;
13720;SDS011;6932;51.438;5.470;2024-02-14T10:17:49;5.83;;;2.93;;
13720;SDS011;6932;51.438;5.470;2024-02-14T10:20:17;5.67;;;3.33;;
13720;SDS011;6932;51.438;5.470;2024-02-14T10:22:43;5.93;;;3.27;;
13720;SDS011;6932;51.438;5.470;2024-02-14T10:25:10;6.53;;;3.50;;
13720;SDS011;6932;51.438;5.470;2024-02-14T10:27:37;5.67;;;3.67;;
13720;SDS011;6932;51.438;5.470;2024-02-14T10:30:05;5.17;;;3.33;;
13720;SDS011;6932;51.438;5.470;2024-02-14T10:32:44;5.87;;;3.40;;
13720;SDS011;6932;51.438;5.470;2024-02-14T10:35:12;5.80;;;3.40;;
13720;SDS011;6932;51.438;5.470;2024-02-14T10:37:40;5.10;;;3.10;;
13720;SDS011;6932;51.438;5.470;2024-02-14T10:40:06;6.93;;;3.60;;
13720;SDS011;6932;51.438;5.470;2024-02-14T10:42:34;5.40;;;3.60;;
13720;SDS011;6932;51.438;5.470;2024-02-14T10:45:00;5.83;;;3.43;;
13720;SDS011;6932;51.438;5.470;2024-02-14T10:47:31;6.60;;;3.80;;
13720;SDS011;6932;51.438;5.470;2024-02-14T10:50:01;5.13;;;3.37;;
13720;SDS011;6932;51.438;5.470;2024-02-14T10:52:30;4.90;;;3.30;;
13720;SDS011;6932;51.438;5.470;2024-02-14T10:54:59;5.60;;;3.33;;
13720;SDS011;6932;51.438;5.470;2024-02-14T10:57:29;6.13;;;3.20;;
13720;SDS011;6932;51.438;5.470;2024-02-14T10:59:57;5.90;;;3.40;;
13720;SDS011;6932;51.438;5.470;2024-02-14T11:02:27;4.73;;;3.23;;
13720;SDS011;6932;51.438;5.470;2024-02-14T11:04:55;5.10;;;3.60;;
13720;SDS011;6932;51.438;5.470;2024-02-14T11:07:22;6.30;;;3.93;;
13720;SDS011;6932;51.438;5.470;2024-02-14T11:09:48;5.80;;;3.70;;
13720;SDS011;6932;51.438;5.470;2024-02-14T11:12:35;4.93;;;3.60;;
13720;SDS011;6932;51.438;5.470;2024-02-14T11:15:10;6.03;;;3.83;;
13720;SDS011;6932;51.438;5.470;2024-02-14T11:17:42;5.20;;;3.67;;
13720;SDS011;6932;51.438;5.470;2024-02-14T11:20:13;4.97;;;3.50;;
13720;SDS011;6932;51.438;5.470;2024-02-14T11:22:53;4.73;;;3.57;;
13720;SDS011;6932;51.438;5.470;2024-02-14T11:25:32;5.00;;;3.30;;
13720;SDS011;6932;51.438;5.470;2024-02-14T11:28:14;5.73;;;3.33;;
13720;SDS011;6932;51.438;5.470;2024-02-14T11:30:45;6.50;;;3.43;;
13720;SDS011;6932;51.438;5.470;2024-02-14T11:33:21;4.83;;;3.37;;
13720;SDS011;6932;51.438;5.470;2024-02-14T11:35:52;4.67;;;3.17;;
13720;SDS011;6932;51.438;5.470;2024-02-14T11:38:20;4.47;;;3.40;;
13720;SDS011;6932;51.438;5.470;2024-02-14T11:40:48;4.40;;;3.40;;
13720;SDS011;6932;51.438;5.470;2024-02-14T11:43:18;4.60;;;3.27;;
13720;SDS011;6932;51.438;5.470;2024-02-14T11:45:45;5.50;;;3.47;;
13720;SDS011;6932;51.438;5.470;2024-02-14T11:48:14;5.10;;;3.47;;
13720;SDS011;6932;51.438;5.470;2024-02-14T11:50:42;5.27;;;3.73;;
13720;SDS011;6932;51.438;5.470;2024-02-14T11:53:10;5.83;;;3.90;;
13720;SDS011;6932;51.438;5.470;2024-02-14T11:55:46;6.27;;;4.20;;
13720;SDS011;6932;51.438;5.470;2024-02-14T11:58:13;8.10;;;4.20;;
13720;SDS011;6932;51.438;5.470;2024-02-14T12:00:42;6.30;;;4.50;;
13720;SDS011;6932;51.438;5.470;2024-02-14T12:03:16;5.77;;;4.23;;
13720;SDS011;6932;51.438;5.470;2024-02-14T12:05:46;5.50;;;4.10;;
13720;SDS011;6932;51.438;5.470;2024-02-14T12:08:15;5.97;;;4.20;;
13720;SDS011;6932;51.438;5.470;2024-02-14T12:10:45;5.47;;;4.00;;
13720;SDS011;6932;51.438;5.470;2024-02-14T12:13:14;5.53;;;3.87;;
13720;SDS011;6932;51.438;5.470;2024-02-14T12:15:46;5.47;;;3.70;;
13720;SDS011;6932;51.438;5.470;2024-02-14T12:18:13;5.90;;;3.60;;
13720;SDS011;6932;51.438;5.470;2024-02-14T12:20:41;5.53;;;3.57;;
13720;SDS011;6932;51.438;5.470;2024-02-14T12:23:13;3.90;;;3.27;;
13720;SDS011;6932;51.438;5.470;2024-02-14T12:25:43;4.73;;;3.30;;
13720;SDS011;6932;51.438;5.470;2024-02-14T12:28:20;4.63;;;3.10;;
13720;SDS011;6932;51.438;5.470;2024-02-14T12:33:14;6.20;;;3.50;;
13720;SDS011;6932;51.438;5.470;2024-02-14T12:35:42;3.50;;;2.90;;
13720;SDS011;6932;51.438;5.470;2024-02-14T12:38:12;4.20;;;2.80;;
13720;SDS011;6932;51.438;5.470;2024-02-14T12:40:41;3.00;;;2.60;;
13720;SDS011;6932;51.438;5.470;2024-02-14T12:43:13;3.73;;;2.70;;
13720;SDS011;6932;51.438;5.470;2024-02-14T12:45:41;3.33;;;2.60;;
13720;SDS011;6932;51.438;5.470;2024-02-14T12:48:08;3.70;;;2.50;;
13720;SDS011;6932;51.438;5.470;2024-02-14T12:50:35;3.97;;;2.33;;
13720;SDS011;6932;51.438;5.470;2024-02-14T12:53:03;3.13;;;2.30;;
13720;SDS011;6932;51.438;5.470;2024-02-14T12:55:30;3.00;;;2.20;;
13720;SDS011;6932;51.438;5.470;2024-02-14T12:57:55;2.63;;;2.03;;
13720;SDS011;6932;51.438;5.470;2024-02-14T13:00:22;2.30;;;2.00;;
13720;SDS011;6932;51.438;5.470;2024-02-14T13:02:49;3.13;;;2.50;;
13720;SDS011;6932;51.438;5.470;2024-02-14T13:05:15;2.73;;;2.00;;
13720;SDS011;6932;51.438;5.470;2024-02-14T13:07:41;2.80;;;2.10;;
13720;SDS011;6932;51.438;5.470;2024-02-14T13:10:08;3.03;;;2.10;;
13720;SDS011;6932;51.438;5.470;2024-02-14T13:12:35;3.80;;;2.20;;
13720;SDS011;6932;51.438;5.470;2024-02-14T13:15:03;3.27;;;2.10;;
13720;SDS011;6932;51.438;5.470;2024-02-14T13:17:31;2.70;;;1.80;;
13720;SDS011;6932;51.438;5.470;2024-02-14T13:19:57;2.27;;;1.70;;
13720;SDS011;6932;51.438;5.470;2024-02-14T13:22:24;2.00;;;1.50;;
13720;SDS011;6932;51.438;5.470;2024-02-14T13:24:51;2.00;;;1.53;;
13720;SDS011;6932;51.438;5.470;2024-02-14T13:27:16;2.33;;;1.57;;
13720;SDS011;6932;51.438;5.470;2024-02-14T13:29:42;1.60;;;1.40;;
13720;SDS011;6932;51.438;5.470;2024-02-14T13:32:08;2.30;;;1.43;;
13720;SDS011;6932;51.438;5.470;2024-02-14T13:34:34;2.87;;;1.50;;
13720;SDS011;6932;51.438;5.470;2024-02-14T13:37:00;1.60;;;1.47;;
13720;SDS011;6932;51.438;5.470;2024-02-14T13:39:27;3.03;;;1.60;;
13720;SDS011;6932;51.438;5.470;2024-02-14T13:41:53;5.53;;;1.83;;
13720;SDS011;6932;51.438;5.470;2024-02-14T13:44:22;4.67;;;1.70;;
13720;SDS011;6932;51.438;5.470;2024-02-14T13:46:49;3.33;;;1.80;;
13720;SDS011;6932;51.438;5.470;2024-02-14T13:49:18;1.63;;;1.40;;
13720;SDS011;6932;51.438;5.470;2024-02-14T13:51:48;2.03;;;1.50;;
13720;SDS011;6932;51.438;5.470;2024-02-14T13:54:16;2.90;;;1.80;;
13720;SDS011;6932;51.438;5.470;2024-02-14T13:56:43;3.43;;;1.80;;
13720;SDS011;6932;51.438;5.470;2024-02-14T13:59:09;3.83;;;2.30;;
13720;SDS011;6932;51.438;5.470;2024-02-14T14:01:36;3.47;;;1.70;;
13720;SDS011;6932;51.438;5.470;2024-02-14T14:04:02;3.67;;;1.70;;
13720;SDS011;6932;51.438;5.470;2024-02-14T14:06:29;2.90;;;1.90;;
13720;SDS011;6932;51.438;5.470;2024-02-14T14:08:55;3.57;;;2.10;;
13720;SDS011;6932;51.438;5.470;2024-02-14T14:11:22;4.33;;;2.33;;
13720;SDS011;6932;51.438;5.470;2024-02-14T14:13:48;3.80;;;1.70;;
13720;SDS011;6932;51.438;5.470;2024-02-14T14:16:14;2.30;;;1.90;;
13720;SDS011;6932;51.438;5.470;2024-02-14T14:18:40;5.67;;;2.00;;
13720;SDS011;6932;51.438;5.470;2024-02-14T14:21:06;2.30;;;1.70;;
13720;SDS011;6932;51.438;5.470;2024-02-14T14:23:32;4.03;;;1.83;;
13720;SDS011;6932;51.438;5.470;2024-02-14T14:25:58;2.87;;;1.90;;
13720;SDS011;6932;51.438;5.470;2024-02-14T14:28:26;3.47;;;2.20;;
13720;SDS011;6932;51.438;5.470;2024-02-14T14:30:53;3.50;;;2.00;;
13720;SDS011;6932;51.438;5.470;2024-02-14T14:33:20;2.40;;;1.70;;
13720;SDS011;6932;51.438;5.470;2024-02-14T14:35:46;2.73;;;1.73;;
13720;SDS011;6932;51.438;5.470;2024-02-14T14:38:17;2.00;;;1.63;;
13720;SDS011;6932;51.438;5.470;2024-02-14T14:40:43;4.60;;;1.60;;
13720;SDS011;6932;51.438;5.470;2024-02-14T14:43:11;3.37;;;1.77;;
13720;SDS011;6932;51.438;5.470;2024-02-14T14:45:37;1.77;;;1.60;;
13720;SDS011;6932;51.438;5.470;2024-02-14T14:48:03;3.17;;;1.70;;
13720;SDS011;6932;51.438;5.470;2024-02-14T14:50:30;2.37;;;1.80;;
13720;SDS011;6932;51.438;5.470;2024-02-14T14:52:56;3.33;;;1.83;;
13720;SDS011;6932;51.438;5.470;2024-02-14T14:55:23;2.60;;;2.00;;
13720;SDS011;6932;51.438;5.470;2024-02-14T14:57:50;3.50;;;2.00;;
13720;SDS011;6932;51.438;5.470;2024-02-14T15:00:16;4.03;;;2.00;;
13720;SDS011;6932;51.438;5.470;2024-02-14T15:02:43;3.57;;;2.10;;